Time;durP1;ratioP1;P1;durP2;ratioP2;P2;SDS_P1;SDS_P2;PMS_P1;PMS_P2;Temp;Humidity;BMP_temperature;BMP_pressure;BME280_temperature;BME280_humidity;BME280_pressure;Samples;Min_cycle;Max_cycle;Signal;HPM_P1;HPM_P2
2023/04/18 00:00:55;;;;;;;16.77;12.18;;;;;;;8.00;100.00;102420.47;5220847;28;20148;-67
2023/04/18 00:03:28;;;;;;;17.20;11.75;;;;;;;7.98;100.00;102422.31;5226686;28;20038;-67
2023/04/18 00:06:01;;;;;;;16.73;11.50;;;;;;;7.94;100.00;102423.38;5219209;28;20087;-67
2023/04/18 00:08:33;;;;;;;17.00;12.38;;;;;;;7.93;100.00;102415.47;5224478;28;20026;-67
2023/04/18 00:11:04;;;;;;;17.73;12.18;;;;;;;7.90;100.00;102421.78;5217716;28;20785;-67
2023/04/18 00:13:37;;;;;;;15.88;11.90;;;;;;;7.88;100.00;102420.97;5219786;28;20033;-67
2023/04/18 00:16:08;;;;;;;15.88;12.13;;;;;;;7.85;100.00;102415.78;5222270;28;20056;-67
2023/04/18 00:18:40;;;;;;;17.60;12.07;;;;;;;7.84;100.00;102419.34;5216699;28;20041;-66
2023/04/18 00:21:12;;;;;;;15.82;11.77;;;;;;;7.78;100.00;102415.13;5218863;28;20040;-67
2023/04/18 00:23:45;;;;;;;16.02;11.95;;;;;;;7.78;100.00;102419.59;5216088;28;20086;-66
2023/04/18 00:26:16;;;;;;;21.40;12.63;;;;;;;7.75;100.00;102409.09;5215667;28;20037;-67
2023/04/18 00:28:47;;;;;;;16.95;13.57;;;;;;;7.73;100.00;102416.25;5216739;28;20029;-67
2023/04/18 00:31:19;;;;;;;18.85;13.07;;;;;;;7.74;100.00;102413.53;5220077;28;20025;-66
2023/04/18 00:33:50;;;;;;;19.85;12.38;;;;;;;7.65;100.00;102406.81;5221009;28;20124;-66
2023/04/18 00:36:21;;;;;;;19.35;13.13;;;;;;;7.72;100.00;102411.88;5220056;28;20475;-66
2023/04/18 00:38:53;;;;;;;17.75;12.82;;;;;;;7.63;100.00;102407.75;5221629;28;20033;-67
2023/04/18 00:41:27;;;;;;;16.73;12.25;;;;;;;7.57;100.00;102411.53;5222057;28;20495;-67
2023/04/18 00:43:58;;;;;;;17.13;12.38;;;;;;;7.54;100.00;102410.81;5219673;28;20312;-67
2023/04/18 00:46:29;;;;;;;19.85;13.57;;;;;;;7.54;100.00;102405.50;5219330;28;20058;-67
2023/04/18 00:49:01;;;;;;;19.90;13.00;;;;;;;7.54;100.00;102402.84;5219765;28;20029;-66
2023/04/18 00:51:34;;;;;;;17.63;13.10;;;;;;;7.52;100.00;102413.50;5220267;28;20040;-66
2023/04/18 00:54:07;;;;;;;18.45;12.57;;;;;;;7.44;100.00;102412.91;5222714;28;20025;-66
2023/04/18 00:56:38;;;;;;;17.73;13.18;;;;;;;7.43;100.00;102401.44;5221710;28;20141;-66
2023/04/18 00:59:10;;;;;;;17.27;12.68;;;;;;;7.42;100.00;102409.47;5217798;28;20025;-66
2023/04/18 01:01:43;;;;;;;18.08;12.43;;;;;;;7.39;100.00;102402.47;5224313;28;20053;-66
2023/04/18 01:04:15;;;;;;;16.98;12.00;;;;;;;7.37;100.00;102404.34;5218797;28;20033;-67
2023/04/18 01:06:47;;;;;;;18.10;12.48;;;;;;;7.34;100.00;102412.41;5220959;28;20037;-67
2023/04/18 01:09:19;;;;;;;15.82;11.65;;;;;;;7.31;100.00;102407.22;5217465;28;20033;-67
2023/04/18 01:11:51;;;;;;;15.68;11.60;;;;;;;7.30;100.00;102408.13;5217491;28;20772;-67
2023/04/18 01:14:23;;;;;;;15.95;10.82;;;;;;;7.31;100.00;102409.88;5220398;28;20120;-67
2023/04/18 01:16:54;;;;;;;15.63;10.70;;;;;;;7.29;100.00;102408.19;5220166;28;20029;-67
2023/04/18 01:19:25;;;;;;;19.35;11.65;;;;;;;7.24;100.00;102395.09;5219350;28;21006;-66
2023/04/18 01:21:57;;;;;;;15.80;11.02;;;;;;;7.21;100.00;102406.72;5221470;28;20080;-66
2023/04/18 01:24:30;;;;;;;14.57;11.30;;;;;;;7.25;100.00;102405.66;5219844;28;20053;-67
2023/04/18 01:27:02;;;;;;;15.93;11.33;;;;;;;7.17;100.00;102405.09;5219877;28;20040;-67
2023/04/18 01:29:33;;;;;;;17.48;11.57;;;;;;;7.15;100.00;102406.94;5215643;28;20312;-67
2023/04/18 01:32:05;;;;;;;17.63;11.18;;;;;;;7.12;100.00;102399.09;5219234;28;20029;-67
2023/04/18 01:34:37;;;;;;;15.45;10.82;;;;;;;7.06;100.00;102396.66;5219607;28;20044;-67
2023/04/18 01:37:08;;;;;;;14.80;10.38;;;;;;;7.04;100.00;102387.88;5222102;28;21456;-67
2023/04/18 01:39:40;;;;;;;16.10;11.45;;;;;;;7.04;100.00;102395.84;5218901;28;20037;-67
2023/04/18 01:42:11;;;;;;;15.25;11.38;;;;;;;7.00;100.00;102391.56;5221301;28;20076;-67
2023/04/18 01:44:43;;;;;;;17.25;11.10;;;;;;;6.93;100.00;102385.63;5218774;28;20034;-67
2023/04/18 01:47:14;;;;;;;16.05;11.43;;;;;;;6.90;100.00;102392.81;5216807;28;20088;-67
2023/04/18 01:49:47;;;;;;;15.25;11.13;;;;;;;6.86;100.00;102384.09;5217066;28;20068;-66
2023/04/18 01:52:18;;;;;;;16.33;11.10;;;;;;;6.83;100.00;102379.78;5220244;28;21234;-67
2023/04/18 01:54:50;;;;;;;16.15;11.52;;;;;;;6.83;100.00;102373.63;5217634;28;20029;-66
2023/04/18 01:57:21;;;;;;;16.10;10.95;;;;;;;6.81;100.00;102383.41;5221244;28;20039;-67
2023/04/18 01:59:53;;;;;;;16.30;10.75;;;;;;;6.78;100.00;102375.56;5222539;28;20037;-67
2023/04/18 02:02:24;;;;;;;15.35;11.27;;;;;;;6.75;100.00;102384.50;5222688;28;20140;-67
2023/04/18 02:04:56;;;;;;;17.83;11.07;;;;;;;6.75;100.00;102380.97;5218372;28;20036;-68
2023/04/18 02:07:27;;;;;;;14.20;10.68;;;;;;;6.71;100.00;102379.34;5218841;28;20037;-67
2023/04/18 02:09:58;;;;;;;17.70;11.82;;;;;;;6.68;100.00;102386.50;5218958;28;20030;-67
2023/04/18 02:12:30;;;;;;;15.10;11.10;;;;;;;6.68;100.00;102388.28;5218543;28;20029;-67
2023/04/18 02:15:02;;;;;;;15.60;11.32;;;;;;;6.62;100.00;102380.56;5215647;28;20170;-67
2023/04/18 02:17:35;;;;;;;16.58;11.77;;;;;;;6.58;100.00;102384.25;5219969;28;20423;-67
2023/04/18 02:20:07;;;;;;;16.65;11.57;;;;;;;6.57;100.00;102383.34;5231008;28;20025;-67
2023/04/18 02:22:38;;;;;;;15.93;11.63;;;;;;;6.52;100.00;102379.13;5225194;28;20037;-67
2023/04/18 02:25:10;;;;;;;18.17;11.63;;;;;;;6.48;100.00;102376.59;5228323;28;20376;-67
2023/04/18 02:27:41;;;;;;;16.75;11.15;;;;;;;6.44;100.00;102380.28;5218513;28;20715;-67
2023/04/18 02:30:13;;;;;;;16.15;11.90;;;;;;;6.43;100.00;102372.38;5221623;28;20395;-67
2023/04/18 02:32:44;;;;;;;18.13;11.18;;;;;;;6.37;100.00;102370.78;5224460;28;20056;-67
2023/04/18 02:35:16;;;;;;;17.05;11.02;;;;;;;6.38;100.00;102379.59;5223335;28;20037;-67
2023/04/18 02:37:47;;;;;;;15.68;11.25;;;;;;;6.34;100.00;102378.84;5217390;28;20025;-67
2023/04/18 02:40:19;;;;;;;14.82;11.05;;;;;;;6.28;100.00;102371.09;5214549;28;20393;-67
2023/04/18 02:42:50;;;;;;;15.15;10.88;;;;;;;6.27;100.00;102372.00;5219315;28;20498;-67
2023/04/18 02:45:22;;;;;;;17.83;11.98;;;;;;;6.22;100.00;102372.19;5217038;28;20525;-67
2023/04/18 02:47:53;;;;;;;15.93;11.60;;;;;;;6.21;100.00;102369.56;5218322;28;21119;-67
2023/04/18 02:50:25;;;;;;;16.52;11.90;;;;;;;6.16;100.00;102368.88;5216597;28;20041;-67
2023/04/18 02:52:57;;;;;;;26.00;12.43;;;;;;;6.15;100.00;102370.63;5215382;28;20025;-67
2023/04/18 02:55:28;;;;;;;15.55;11.02;;;;;;;6.09;100.00;102371.72;5215824;28;20040;-67
2023/04/18 02:57:59;;;;;;;16.25;10.98;;;;;;;6.09;100.00;102371.72;5216817;28;20033;-67
2023/04/18 03:00:31;;;;;;;17.20;11.23;;;;;;;6.04;100.00;102365.72;5218986;28;20030;-67
2023/04/18 03:03:02;;;;;;;16.20;11.32;;;;;;;6.00;100.00;102361.44;5218049;28;20041;-68
2023/04/18 03:05:34;;;;;;;15.90;11.50;;;;;;;6.00;100.00;102369.38;5216329;28;20083;-68
2023/04/18 03:08:05;;;;;;;16.50;10.88;;;;;;;5.98;100.00;102363.25;5214195;28;20044;-68
2023/04/18 03:10:37;;;;;;;15.60;10.93;;;;;;;5.90;100.00;102363.47;5216146;28;20026;-67
2023/04/18 03:13:08;;;;;;;16.38;10.65;;;;;;;5.87;100.00;102371.53;5220012;28;20030;-68
2023/04/18 03:15:40;;;;;;;17.02;10.98;;;;;;;5.85;100.00;102364.56;5221221;28;20391;-67
2023/04/18 03:18:11;;;;;;;14.82;10.95;;;;;;;5.83;100.00;102367.25;5223990;28;20022;-67
2023/04/18 03:20:43;;;;;;;16.92;11.52;;;;;;;5.78;100.00;102366.53;5222842;28;20036;-67
2023/04/18 03:23:14;;;;;;;15.00;10.85;;;;;;;5.77;100.00;102374.50;5216474;28;20029;-68
2023/04/18 03:25:45;;;;;;;16.55;11.23;;;;;;;5.76;100.00;102368.34;5217577;28;20025;-67
2023/04/18 03:28:17;;;;;;;16.15;10.98;;;;;;;5.71;100.00;102380.88;5218790;28;20471;-67
2023/04/18 03:30:49;;;;;;;15.13;10.75;;;;;;;5.67;100.00;102369.50;5220569;28;20049;-67
2023/04/18 03:33:21;;;;;;;16.98;11.40;;;;;;;5.62;100.00;102371.44;5217546;28;20744;-67
2023/04/18 03:35:52;;;;;;;17.23;11.45;;;;;;;5.60;100.00;102375.91;5217828;28;20079;-67
2023/04/18 03:38:23;;;;;;;17.60;11.32;;;;;;;5.58;100.00;102375.09;5217517;28;20041;-67
2023/04/18 03:40:55;;;;;;;16.40;11.93;;;;;;;5.53;100.00;102374.38;5211191;28;20072;-67
2023/04/18 03:43:26;;;;;;;14.90;10.73;;;;;;;5.50;100.00;102382.38;5217925;28;20475;-67
2023/04/18 03:45:58;;;;;;;16.23;10.68;;;;;;;5.49;100.00;102380.66;5221329;28;20037;-67
2023/04/18 03:48:29;;;;;;;17.60;11.70;;;;;;;5.44;100.00;102367.56;5229207;28;20033;-67
2023/04/18 03:51:01;;;;;;;15.73;11.43;;;;;;;5.41;100.00;102375.63;5222065;28;20023;-67
2023/04/18 03:53:33;;;;;;;16.30;11.15;;;;;;;5.35;100.00;102381.09;5225520;28;20026;-67
2023/04/18 03:56:04;;;;;;;15.00;10.95;;;;;;;5.33;100.00;102374.97;5231443;28;20056;-67
2023/04/18 03:58:36;;;;;;;16.98;11.20;;;;;;;5.31;100.00;102382.06;5227449;28;20116;-67
2023/04/18 04:01:07;;;;;;;15.00;11.23;;;;;;;5.28;100.00;102382.19;5235212;28;20037;-67
2023/04/18 04:03:39;;;;;;;15.15;10.77;;;;;;;5.24;100.00;102381.41;5233196;28;20026;-68
2023/04/18 04:06:10;;;;;;;17.70;11.38;;;;;;;5.21;100.00;102380.63;5230635;28;20044;-67
2023/04/18 04:08:41;;;;;;;16.75;10.88;;;;;;;5.19;100.00;102383.31;5232192;28;20071;-67
2023/04/18 04:11:13;;;;;;;14.65;10.98;;;;;;;5.14;100.00;102374.66;5233275;28;20025;-67
2023/04/18 04:13:44;;;;;;;14.40;10.85;;;;;;;5.13;100.00;102380.00;5235073;28;20025;-67
2023/04/18 04:16:15;;;;;;;15.90;10.95;;;;;;;5.09;100.00;102376.56;5228230;28;20033;-67
2023/04/18 04:18:47;;;;;;;18.25;11.27;;;;;;;5.06;100.00;102377.53;5223911;28;20076;-67
2023/04/18 04:21:18;;;;;;;16.48;10.93;;;;;;;5.04;100.00;102378.47;5234646;28;20034;-67
2023/04/18 04:23:49;;;;;;;15.70;11.57;;;;;;;5.02;100.00;102389.06;5235016;28;20030;-67
2023/04/18 04:26:22;;;;;;;18.08;11.30;;;;;;;5.00;100.00;102375.03;5229365;28;20044;-67
2023/04/18 04:28:53;;;;;;;18.67;10.60;;;;;;;4.95;100.00;102384.91;5227194;28;20091;-67
2023/04/18 04:31:24;;;;;;;17.38;11.40;;;;;;;4.97;100.00;102384.84;5222938;28;20033;-67
2023/04/18 04:33:56;;;;;;;14.73;11.10;;;;;;;4.94;100.00;102379.63;5225343;28;20428;-67
2023/04/18 04:36:28;;;;;;;17.70;11.48;;;;;;;4.94;100.00;102390.22;5237864;28;20126;-67
2023/04/18 04:39:02;;;;;;;15.10;10.85;;;;;;;4.87;100.00;102382.47;5237852;28;20394;-67
2023/04/18 04:41:36;;;;;;;18.08;10.77;;;;;;;4.88;100.00;102386.81;5234403;28;20751;-67
2023/04/18 04:44:08;;;;;;;16.75;11.55;;;;;;;4.89;100.00;102391.22;5234209;28;20434;-67
2023/04/18 04:46:40;;;;;;;16.90;11.20;;;;;;;4.85;100.00;102393.97;5232268;28;20044;-67
2023/04/18 04:49:11;;;;;;;16.23;11.32;;;;;;;4.81;100.00;102387.91;5219328;28;20616;-67
2023/04/18 04:51:43;;;;;;;16.02;11.25;;;;;;;4.82;100.00;102389.66;5226165;28;20025;-67
2023/04/18 04:54:14;;;;;;;16.50;11.07;;;;;;;4.85;100.00;102393.97;5230597;28;20021;-67
2023/04/18 04:56:45;;;;;;;16.85;11.32;;;;;;;4.79;100.00;102394.16;5226015;28;20040;-67
2023/04/18 04:59:17;;;;;;;17.30;10.45;;;;;;;4.74;100.00;102396.94;5224793;28;20029;-68
2023/04/18 05:01:48;;;;;;;17.98;11.45;;;;;;;4.71;100.00;102387.28;5227393;28;20132;-67
2023/04/18 05:04:20;;;;;;;15.55;11.23;;;;;;;4.72;100.00;102394.31;5235541;28;20113;-67
2023/04/18 05:06:51;;;;;;;15.00;10.32;;;;;;;4.71;100.00;102394.34;5231058;28;20032;-67
2023/04/18 05:09:23;;;;;;;16.45;10.60;;;;;;;4.69;100.00;102399.69;5232328;28;20120;-68
2023/04/18 05:11:54;;;;;;;15.00;10.50;;;;;;;4.68;100.00;102386.53;5239135;28;20025;-67
2023/04/18 05:14:26;;;;;;;16.20;11.07;;;;;;;4.69;100.00;102397.03;5234055;28;20021;-68
2023/04/18 05:16:57;;;;;;;16.98;10.68;;;;;;;4.69;100.00;102396.19;5228086;28;20029;-67
2023/04/18 05:19:29;;;;;;;16.42;11.55;;;;;;;4.68;100.00;102397.97;5233294;28;20440;-67
2023/04/18 05:22:00;;;;;;;14.93;10.80;;;;;;;4.71;100.00;102397.00;5228553;28;20137;-68
2023/04/18 05:24:32;;;;;;;16.08;10.65;;;;;;;4.73;100.00;102403.13;5221514;28;20024;-67
2023/04/18 05:27:03;;;;;;;15.85;10.25;;;;;;;4.70;100.00;102400.56;5223544;28;20471;-67
2023/04/18 05:29:34;;;;;;;15.85;10.70;;;;;;;4.74;100.00;102406.63;5224895;28;20033;-67
2023/04/18 05:32:06;;;;;;;16.65;10.82;;;;;;;4.71;100.00;102403.16;5227141;28;20053;-68
2023/04/18 05:34:38;;;;;;;14.55;10.40;;;;;;;4.75;100.00;102413.66;5223305;28;20029;-67
2023/04/18 05:37:09;;;;;;;14.68;10.63;;;;;;;4.79;100.00;102416.16;5237579;28;20029;-67
2023/04/18 05:39:41;;;;;;;16.35;11.43;;;;;;;4.76;100.00;102415.41;5235070;28;20056;-68
2023/04/18 05:42:12;;;;;;;14.80;10.18;;;;;;;4.81;100.00;102413.47;5231764;28;20503;-67
2023/04/18 05:44:43;;;;;;;19.88;12.40;;;;;;;4.85;100.00;102418.66;5234194;28;20065;-67
2023/04/18 05:47:15;;;;;;;16.80;10.88;;;;;;;4.97;100.00;102424.53;5235000;28;20112;-68
2023/04/18 05:49:46;;;;;;;15.75;11.63;;;;;;;5.00;100.00;102433.22;5226646;28;20049;-67
2023/04/18 05:52:18;;;;;;;17.17;10.40;;;;;;;5.07;100.00;102426.88;5222834;28;20052;-67
2023/04/18 05:54:49;;;;;;;17.40;11.52;;;;;;;5.15;100.00;102424.00;5219560;28;20403;-67
2023/04/18 05:57:21;;;;;;;16.92;11.27;;;;;;;5.23;100.00;102432.56;5234352;28;20032;-67
2023/04/18 05:59:52;;;;;;;17.48;10.85;;;;;;;5.31;100.00;102429.72;5226839;28;20017;-67
2023/04/18 06:02:23;;;;;;;15.80;10.73;;;;;;;5.38;100.00;102428.63;5224380;28;20131;-67
2023/04/18 06:04:55;;;;;;;19.02;11.13;;;;;;;5.45;100.00;102424.03;5221601;28;20395;-67
2023/04/18 06:07:27;;;;;;;15.93;10.43;;;;;;;5.51;100.00;102431.78;5221867;28;20057;-67
2023/04/18 06:09:58;;;;;;;15.73;10.10;;;;;;;5.60;100.00;102436.81;5230146;28;20032;-68
2023/04/18 06:12:29;;;;;;;16.27;10.48;;;;;;;5.69;100.00;102440.94;5226021;28;20033;-67
2023/04/18 06:15:01;;;;;;;15.43;10.68;;;;;;;5.76;100.00;102442.50;5225838;28;20446;-67
2023/04/18 06:17:33;;;;;;;14.85;10.10;;;;;;;5.86;100.00;102438.66;5229304;28;20030;-67
2023/04/18 06:20:05;;;;;;;14.63;10.45;;;;;;;5.90;100.00;102437.63;5231398;28;20368;-67
2023/04/18 06:22:36;;;;;;;14.88;10.07;;;;;;;5.96;100.00;102449.84;5232049;28;20060;-67
2023/04/18 06:25:08;;;;;;;18.83;11.27;;;;;;;6.02;100.00;102444.38;5230215;28;20034;-67
2023/04/18 06:27:40;;;;;;;15.48;11.00;;;;;;;6.06;100.00;102446.03;5222552;28;20029;-67
2023/04/18 06:30:13;;;;;;;16.63;11.35;;;;;;;6.12;100.00;102447.63;5221219;28;20021;-68
2023/04/18 06:32:44;;;;;;;18.05;10.77;;;;;;;6.16;100.00;102445.72;5222869;28;20026;-67
2023/04/18 06:35:16;;;;;;;14.75;10.68;;;;;;;6.24;100.00;102454.28;5232839;28;20144;-68
2023/04/18 06:37:47;;;;;;;15.40;10.85;;;;;;;6.28;100.00;102448.81;5232926;28;20080;-67
2023/04/18 06:40:19;;;;;;;15.30;10.50;;;;;;;6.35;100.00;102446.88;5230098;28;20042;-67
2023/04/18 06:42:50;;;;;;;18.50;10.70;;;;;;;6.40;100.00;102447.56;5242032;28;20060;-67
2023/04/18 06:45:22;;;;;;;14.82;10.73;;;;;;;6.50;100.00;102456.09;5238644;28;20388;-67
2023/04/18 06:47:53;;;;;;;15.00;10.50;;;;;;;6.60;100.00;102449.56;5236387;28;20556;-67
2023/04/18 06:50:25;;;;;;;14.35;9.80;;;;;;;6.71;100.00;102458.91;5230735;28;20022;-67
2023/04/18 06:52:57;;;;;;;15.00;10.23;;;;;;;6.75;100.00;102456.13;5232594;28;20434;-68
2023/04/18 06:55:28;;;;;;;16.75;10.10;;;;;;;6.87;100.00;102453.03;5228941;28;20430;-68
2023/04/18 06:58:00;;;;;;;15.27;10.35;;;;;;;6.94;100.00;102455.47;5242138;28;20029;-67
2023/04/18 07:00:31;;;;;;;16.23;10.40;;;;;;;7.01;100.00;102460.50;5227014;28;20025;-67
2023/04/18 07:03:08;;;;;;;14.88;10.27;;;;;;;7.07;100.00;102462.94;5241536;28;20108;-68
2023/04/18 07:05:40;;;;;;;14.40;10.18;;;;;;;7.16;100.00;102464.41;5233172;28;20060;-75
2023/04/18 07:08:11;;;;;;;15.85;10.38;;;;;;;7.26;100.00;102462.28;5232874;28;20486;-67
2023/04/18 07:10:43;;;;;;;16.23;11.27;;;;;;;7.30;100.00;102469.19;5219666;28;20022;-67
2023/04/18 07:13:14;;;;;;;12.32;9.68;;;;;;;7.37;100.00;102472.50;5227913;28;20029;-67
2023/04/18 07:15:46;;;;;;;14.90;10.13;;;;;;;7.41;100.00;102463.50;5234910;28;20021;-67
2023/04/18 07:18:17;;;;;;;14.80;10.32;;;;;;;7.45;100.00;102473.94;5233873;28;20032;-67
2023/04/18 07:20:49;;;;;;;15.65;10.15;;;;;;;7.53;100.00;102475.47;5240148;28;20017;-67
2023/04/18 07:23:20;;;;;;;12.25;9.45;;;;;;;7.58;100.00;102468.19;5228833;28;20385;-67
2023/04/18 07:25:51;;;;;;;14.07;9.63;;;;;;;7.56;100.00;102468.25;5231371;28;20029;-67
2023/04/18 07:28:23;;;;;;;14.02;9.52;;;;;;;7.59;100.00;102475.22;5235975;28;20111;-67
2023/04/18 07:30:55;;;;;;;13.30;9.85;;;;;;;7.68;100.00;102468.69;5245218;28;20078;-67
2023/04/18 07:33:30;;;;;;;13.88;9.90;;;;;;;7.75;100.00;102472.88;5228321;28;20175;-67
2023/04/18 07:36:02;;;;;;;11.52;9.00;;;;;;;7.80;100.00;102476.19;5228481;28;20029;-67
2023/04/18 07:38:34;;;;;;;12.98;9.57;;;;;;;7.85;100.00;102472.44;5231289;28;20341;-67
2023/04/18 07:41:05;;;;;;;16.02;9.73;;;;;;;7.96;100.00;102484.47;5229866;28;20125;-67
2023/04/18 07:43:37;;;;;;;15.15;9.98;;;;;;;8.04;100.00;102482.34;5225075;28;20037;-67
2023/04/18 07:46:09;;;;;;;14.95;8.95;;;;;;;8.08;100.00;102475.13;5230467;28;20022;-67
2023/04/18 07:48:40;;;;;;;13.13;9.80;;;;;;;8.12;100.00;102472.28;5241394;28;20025;-67
2023/04/18 07:51:12;;;;;;;13.15;9.48;;;;;;;8.20;100.00;102477.28;5226410;28;20127;-67
2023/04/18 07:53:43;;;;;;;13.90;9.23;;;;;;;8.25;100.00;102477.97;5231872;28;20128;-67
2023/04/18 07:56:15;;;;;;;11.68;9.05;;;;;;;8.35;100.00;102481.97;5226557;28;20029;-67
2023/04/18 07:58:46;;;;;;;11.27;8.95;;;;;;;8.50;100.00;102474.34;5229599;28;20060;-67
2023/04/18 08:01:19;;;;;;;14.48;9.00;;;;;;;8.66;100.00;102486.06;5223331;28;20038;-67
2023/04/18 08:03:53;;;;;;;10.88;8.63;;;;;;;8.75;100.00;102483.00;5235779;28;20044;-67
2023/04/18 08:06:25;;;;;;;11.15;9.07;;;;;;;8.92;100.00;102486.75;5227400;28;20030;-67
2023/04/18 08:08:57;;;;;;;12.90;8.88;;;;;;;9.02;100.00;102483.63;5233095;28;20033;-67
2023/04/18 08:11:30;;;;;;;11.10;8.75;;;;;;;9.11;100.00;102484.13;5235497;28;20057;-67
2023/04/18 08:14:01;;;;;;;11.45;9.02;;;;;;;9.22;100.00;102482.75;5222980;28;20036;-67
2023/04/18 08:16:32;;;;;;;11.98;9.10;;;;;;;9.32;100.00;102492.97;5232175;28;20411;-67
2023/04/18 08:19:04;;;;;;;12.73;9.40;;;;;;;9.37;100.00;102491.84;5229535;28;20493;-67
2023/04/18 08:21:36;;;;;;;12.85;9.65;;;;;;;9.41;100.00;102487.25;5233266;28;20033;-67
2023/04/18 08:24:07;;;;;;;11.85;8.98;;;;;;;9.42;100.00;102495.16;5231086;28;20037;-67
2023/04/18 08:26:39;;;;;;;9.50;8.45;;;;;;;9.41;100.00;102495.22;5229941;28;20527;-67
2023/04/18 08:29:11;;;;;;;11.30;8.90;;;;;;;9.37;100.00;102489.16;5226744;28;20033;-67
2023/04/18 08:31:42;;;;;;;11.57;9.07;;;;;;;9.37;100.00;102488.31;5230592;28;20021;-67
2023/04/18 08:34:13;;;;;;;11.65;9.27;;;;;;;9.37;100.00;102489.16;5231076;28;20022;-67
2023/04/18 08:36:45;;;;;;;13.40;9.80;;;;;;;9.36;100.00;102497.25;5233046;28;20434;-67
2023/04/18 08:39:16;;;;;;;10.55;8.80;;;;;;;9.40;100.00;102494.38;5237880;28;20033;-67
2023/04/18 08:41:56;;;;;;;11.60;9.02;;;;;;;9.58;100.00;102495.31;5240343;28;20030;-67
2023/04/18 08:44:28;;;;;;;13.73;9.57;;;;;;;9.59;100.00;102489.06;5237558;28;20029;-67
2023/04/18 08:47:00;;;;;;;12.00;9.13;;;;;;;9.69;100.00;102486.00;5237307;28;20053;-67
2023/04/18 08:49:32;;;;;;;13.13;8.98;;;;;;;9.68;100.00;102493.09;5229123;28;20035;-67
2023/04/18 08:52:15;;;;;;;12.43;9.20;;;;;;;9.77;100.00;102489.16;5226716;28;22315;-67
2023/04/18 08:54:49;;;;;;;12.70;8.68;;;;;;;9.81;100.00;102488.94;5235960;28;20036;-67
2023/04/18 08:57:25;;;;;;;11.27;8.70;;;;;;;9.85;100.00;102489.66;5232252;28;20029;-67
2023/04/18 08:59:59;;;;;;;9.40;8.25;;;;;;;9.98;100.00;102487.28;5228634;28;20029;-67
2023/04/18 09:02:41;;;;;;;13.02;9.10;;;;;;;10.12;100.00;102479.47;5230751;28;20452;-67
2023/04/18 09:05:20;;;;;;;13.35;9.63;;;;;;;10.35;100.00;102474.84;5232285;28;20027;-67
2023/04/18 09:07:53;;;;;;;10.90;8.68;;;;;;;10.49;100.00;102469.69;5232318;28;20021;-67
2023/04/18 09:10:31;;;;;;;12.63;9.00;;;;;;;10.71;100.00;102472.13;5230296;28;20029;-67
2023/04/18 09:13:03;;;;;;;12.93;9.52;;;;;;;10.82;100.00;102473.41;5227290;28;20032;-67
2023/04/18 09:15:34;;;;;;;11.95;9.20;;;;;;;10.89;100.00;102466.78;5228084;28;20993;-67
2023/04/18 09:18:09;;;;;;;11.35;9.32;;;;;;;10.92;100.00;102470.16;5228853;28;20021;-67
2023/04/18 09:20:41;;;;;;;10.80;8.73;;;;;;;10.94;100.00;102467.44;5234001;28;20427;-67
2023/04/18 09:23:23;;;;;;;12.57;9.77;;;;;;;11.03;100.00;102464.28;5229292;28;20404;-67
2023/04/18 09:25:56;;;;;;;12.13;9.25;;;;;;;11.02;100.00;102467.88;5235393;28;20083;-67
2023/04/18 09:28:32;;;;;;;11.32;8.43;;;;;;;10.98;100.00;102472.50;5230319;28;20028;-67
2023/04/18 09:31:10;;;;;;;12.15;8.80;;;;;;;10.99;100.00;102470.72;5236094;28;20032;-67
2023/04/18 09:33:55;;;;;;;10.45;8.60;;;;;;;11.04;100.00;102470.47;5233455;28;20029;-68
2023/04/18 09:36:26;;;;;;;11.82;8.45;;;;;;;10.97;100.00;102468.13;5239281;28;20083;-67
2023/04/18 09:38:58;;;;;;;11.65;8.60;;;;;;;11.07;100.00;102465.00;5231028;28;20033;-66
2023/04/18 09:41:31;;;;;;;10.02;8.13;;;;;;;11.06;100.00;102463.25;5236361;28;20048;-67
2023/04/18 09:44:10;;;;;;;12.43;8.77;;;;;;;11.10;100.00;102456.78;5229652;28;20149;-68
2023/04/18 09:46:42;;;;;;;9.73;7.95;;;;;;;11.06;100.00;102460.56;5227798;28;20075;-67
2023/04/18 09:49:15;;;;;;;11.00;8.50;;;;;;;11.08;100.00;102451.53;5225411;28;20025;-67
2023/04/18 09:51:50;;;;;;;10.95;8.70;;;;;;;11.15;100.00;102452.94;5227366;28;20028;-66
2023/04/18 09:54:23;;;;;;;11.10;7.78;;;;;;;11.22;100.00;102453.50;5230820;28;20033;-67
2023/04/18 09:56:55;;;;;;;9.20;7.70;;;;;;;11.28;100.00;102449.63;5225914;28;20033;-67
2023/04/18 09:59:40;;;;;;;9.45;7.40;;;;;;;11.36;100.00;102458.09;5231586;28;20037;-67
2023/04/18 10:02:18;;;;;;;9.75;7.32;;;;;;;11.51;100.00;102459.94;5228058;28;20105;-67
2023/04/18 10:04:52;;;;;;;9.27;7.55;;;;;;;11.62;100.00;102456.69;5229120;28;20040;-66
2023/04/18 10:07:26;;;;;;;12.15;7.85;;;;;;;11.73;100.00;102442.69;5226622;28;20033;-67
2023/04/18 10:09:57;;;;;;;10.25;7.20;;;;;;;11.82;100.00;102454.69;5230373;28;20020;-67
2023/04/18 10:12:29;;;;;;;8.38;6.60;;;;;;;11.78;100.00;102451.31;5231683;28;20787;-67
2023/04/18 10:15:01;;;;;;;8.57;6.82;;;;;;;11.75;100.00;102454.16;5224077;28;20108;-67
2023/04/18 10:17:52;;;;;;;8.43;6.88;;;;;;;11.75;100.00;102449.69;5231557;28;20021;-67
2023/04/18 10:20:31;;;;;;;10.65;6.40;;;;;;;11.73;100.00;102459.59;5228613;28;20041;-67
2023/04/18 10:23:30;;;;;;;8.07;5.95;;;;;;;11.84;100.00;102463.50;5227751;28;20025;-68
2023/04/18 10:26:06;;;;;;;7.10;5.45;;;;;;;11.74;100.00;102463.16;5223318;28;20643;-67
2023/04/18 10:28:57;;;;;;;7.40;4.82;;;;;;;11.75;100.00;102457.72;5243783;28;20458;-67
2023/04/18 10:31:37;;;;;;;7.50;5.28;;;;;;;11.69;100.00;102458.03;5223121;28;20328;-67
2023/04/18 10:34:16;;;;;;;5.65;4.55;;;;;;;11.57;100.00;102459.59;5233332;28;20025;-67
2023/04/18 10:37:03;;;;;;;6.55;4.85;;;;;;;11.52;100.00;102461.63;5226277;28;20052;-67
2023/04/18 10:39:48;;;;;;;6.75;5.57;;;;;;;11.58;100.00;102466.66;5225020;28;20033;-67
2023/04/18 10:42:39;;;;;;;;;;;;;;;11.69;100.00;102463.38;5230090;28;20063;-67
2023/04/18 10:45:21;;;;;;;7.20;5.70;;;;;;;11.63;100.00;102462.88;5223470;28;19920;-67
2023/04/18 10:48:24;;;;;;;6.63;5.28;;;;;;;11.68;100.00;102468.84;5219643;28;20037;-67
2023/04/18 10:51:15;;;;;;;7.97;4.90;;;;;;;11.71;100.00;102455.28;5232014;28;20026;-68
2023/04/18 10:53:51;;;;;;;6.95;5.22;;;;;;;11.77;100.00;102460.28;5228388;28;20041;-67
2023/04/18 10:56:24;;;;;;;9.43;5.75;;;;;;;11.74;100.00;102472.03;5221746;28;20072;-66
2023/04/18 10:59:00;;;;;;;7.03;5.72;;;;;;;11.88;100.00;102459.69;5241353;28;20372;-67
2023/04/18 11:01:36;;;;;;;7.95;5.28;;;;;;;11.88;100.00;102465.03;5226435;28;20045;-67
2023/04/18 11:04:12;;;;;;;7.47;5.80;;;;;;;11.87;100.00;102458.84;5225879;28;20040;-67
2023/04/18 11:06:48;;;;;;;6.10;5.13;;;;;;;11.86;100.00;102465.13;5228254;28;20033;-67
2023/04/18 11:09:21;;;;;;;7.75;6.38;;;;;;;11.84;100.00;102456.31;5241117;28;20120;-67
2023/04/18 11:12:06;;;;;;;7.05;5.55;;;;;;;11.84;100.00;102459.00;5230325;28;20028;-67
2023/04/18 11:14:53;;;;;;;9.20;6.45;;;;;;;11.92;100.00;102453.25;5219108;28;20029;-67
2023/04/18 11:17:26;;;;;;;9.25;6.80;;;;;;;11.76;100.00;102462.09;5228377;28;20069;-67
2023/04/18 11:20:00;;;;;;;8.48;6.60;;;;;;;11.81;100.00;102450.28;5224702;28;20399;-67
2023/04/18 11:22:31;;;;;;;9.05;6.70;;;;;;;11.85;100.00;102458.06;5226823;28;20673;-67
2023/04/18 11:25:06;;;;;;;7.68;6.68;;;;;;;11.87;100.00;102457.97;5232981;28;20029;-67
2023/04/18 11:27:40;;;;;;;8.80;7.13;;;;;;;11.87;100.00;102452.59;5229561;28;20439;-67
2023/04/18 11:30:13;;;;;;;8.55;7.25;;;;;;;11.76;100.00;102442.53;5228440;28;20032;-67
2023/04/18 11:32:45;;;;;;;10.45;7.93;;;;;;;11.81;100.00;102447.59;5233211;28;20115;-67
2023/04/18 11:35:17;;;;;;;9.32;7.20;;;;;;;11.77;100.00;102450.47;5232029;28;20022;-67
2023/04/18 11:37:50;;;;;;;10.32;8.18;;;;;;;11.81;100.00;102439.59;5232138;28;20030;-67